Time;durP1;ratioP1;P1;durP2;ratioP2;P2;SDS_P1;SDS_P2;PMS_P1;PMS_P2;Temp;Humidity;BMP_temperature;BMP_pressure;BME280_temperature;BME280_humidity;BME280_pressure;Samples;Min_cycle;Max_cycle;Signal;HPM_P1;HPM_P2
2022/03/24 00:02:08;;;;;;;42.83;30.70;;;8.60;99.90;;;;;;4980477;28;20462;-68
2022/03/24 00:05:04;;;;;;;38.50;30.90;;;8.50;99.90;;;;;;4969845;28;20575;-68
2022/03/24 00:07:55;;;;;;;40.80;30.53;;;8.50;99.90;;;;;;4973449;28;20547;-67
2022/03/24 00:10:44;;;;;;;40.33;29.80;;;8.50;99.90;;;;;;4977026;28;20453;-68
2022/03/24 00:13:36;;;;;;;48.57;33.23;;;8.50;99.90;;;;;;4962592;28;20479;-68
2022/03/24 00:16:26;;;;;;;40.93;29.43;;;8.50;99.90;;;;;;4952155;28;20470;-68
2022/03/24 00:19:17;;;;;;;43.60;29.60;;;8.50;99.90;;;;;;4954178;28;20487;-67
2022/03/24 00:22:06;;;;;;;40.50;28.33;;;8.40;99.90;;;;;;4954444;28;20939;-67
2022/03/24 00:24:55;;;;;;;38.53;30.53;;;8.40;99.90;;;;;;4988079;28;20500;-66
2022/03/24 00:27:49;;;;;;;40.70;31.60;;;8.40;99.90;;;;;;4983626;28;20464;-66
2022/03/24 00:30:37;;;;;;;42.67;30.50;;;8.40;99.90;;;;;;4971124;28;20454;-66
2022/03/24 00:33:28;;;;;;;39.97;29.33;;;8.30;99.90;;;;;;4967967;28;20504;-66
2022/03/24 00:36:22;;;;;;;40.27;29.57;;;8.40;99.90;;;;;;4973415;28;20558;-66
2022/03/24 00:39:26;;;;;;;39.60;31.07;;;8.40;99.90;;;;;;4975199;28;21104;-66
2022/03/24 00:42:22;;;;;;;41.93;29.80;;;8.40;99.90;;;;;;4968605;28;20493;-67
2022/03/24 00:45:13;;;;;;;39.97;29.40;;;8.40;99.90;;;;;;4968011;28;20563;-67
2022/03/24 00:48:01;;;;;;;38.57;29.63;;;8.40;99.90;;;;;;4972502;28;20517;-66
2022/03/24 00:50:51;;;;;;;38.80;29.27;;;8.30;99.90;;;;;;4975286;28;20450;-66
2022/03/24 00:53:42;;;;;;;43.47;32.07;;;8.30;99.90;;;;;;4970817;28;20983;-67
2022/03/24 00:56:32;;;;;;;41.63;29.80;;;8.30;99.90;;;;;;4974795;28;20465;-67
2022/03/24 00:59:22;;;;;;;43.13;30.57;;;8.10;99.90;;;;;;4967746;28;20723;-67
2022/03/24 01:02:20;;;;;;;40.80;29.00;;;8.10;99.90;;;;;;4972273;28;20485;-67
2022/03/24 01:05:12;;;;;;;42.97;31.70;;;8.10;99.90;;;;;;4970040;28;20497;-67
2022/03/24 01:08:03;;;;;;;38.53;29.70;;;8.00;99.90;;;;;;4972570;28;20469;-67
2022/03/24 01:10:51;;;;;;;41.67;29.97;;;7.90;99.90;;;;;;4975128;28;20465;-67
2022/03/24 01:13:40;;;;;;;42.47;30.53;;;7.90;99.90;;;;;;4965323;28;20633;-67
2022/03/24 01:16:34;;;;;;;38.60;29.50;;;7.90;99.90;;;;;;4955489;28;20586;-67
2022/03/24 01:19:24;;;;;;;42.37;29.80;;;7.80;99.90;;;;;;4955133;28;21168;-67
2022/03/24 01:22:13;;;;;;;42.20;30.67;;;7.80;99.90;;;;;;4958917;28;20974;-67
2022/03/24 01:25:04;;;;;;;47.93;30.93;;;7.70;99.90;;;;;;4956967;28;20513;-67
2022/03/24 01:27:57;;;;;;;40.47;29.47;;;7.70;99.90;;;;;;4953938;28;20553;-67
2022/03/24 01:30:45;;;;;;;40.13;31.93;;;7.70;99.90;;;;;;4957406;28;20535;-67
2022/03/24 01:33:34;;;;;;;42.20;30.33;;;7.60;99.90;;;;;;4953188;28;20605;-67
2022/03/24 01:36:25;;;;;;;40.93;29.67;;;7.60;99.90;;;;;;4954948;28;20554;-68
2022/03/24 01:39:21;;;;;;;43.87;30.33;;;7.60;99.90;;;;;;4952816;28;20479;-69
2022/03/24 01:42:10;;;;;;;44.53;30.47;;;7.50;99.90;;;;;;4957535;28;20560;-66
2022/03/24 01:44:58;;;;;;;42.33;29.67;;;7.50;99.90;;;;;;4947417;28;20503;-67
2022/03/24 01:47:48;;;;;;;39.93;29.87;;;7.40;99.90;;;;;;4957060;28;20602;-68
2022/03/24 01:50:40;;;;;;;45.63;31.33;;;7.30;99.90;;;;;;4957437;28;20473;-68
2022/03/24 01:53:28;;;;;;;39.03;30.07;;;7.30;99.90;;;;;;4962655;28;20644;-66
2022/03/24 01:56:18;;;;;;;41.30;31.37;;;7.20;99.90;;;;;;4980338;28;21012;-67
2022/03/24 01:59:08;;;;;;;41.60;30.47;;;7.20;99.90;;;;;;4975357;28;20513;-67
2022/03/24 02:01:57;;;;;;;40.30;28.80;;;7.10;99.90;;;;;;4987884;28;20972;-68
2022/03/24 02:04:46;;;;;;;40.00;29.80;;;7.00;99.90;;;;;;4977668;28;20478;-67
2022/03/24 02:07:36;;;;;;;43.53;31.07;;;6.90;99.90;;;;;;4975256;28;20457;-67
2022/03/24 02:10:31;;;;;;;40.43;30.30;;;6.80;99.90;;;;;;4977387;28;20520;-67
2022/03/24 02:13:24;;;;;;;42.73;31.20;;;6.70;99.90;;;;;;4974045;28;21021;-67
2022/03/24 02:16:12;;;;;;;43.00;30.80;;;6.70;99.90;;;;;;4979911;28;21001;-67
2022/03/24 02:19:10;;;;;;;39.00;29.70;;;6.60;99.90;;;;;;4975502;28;20490;-67
2022/03/24 02:22:13;;;;;;;40.67;29.40;;;6.60;99.90;;;;;;4973997;28;20616;-68
2022/03/24 02:25:10;;;;;;;37.93;29.50;;;6.50;99.90;;;;;;4976099;28;20497;-68
2022/03/24 02:28:06;;;;;;;41.10;31.00;;;6.40;99.90;;;;;;4980039;28;20612;-67
2022/03/24 02:30:54;;;;;;;44.77;30.37;;;6.40;99.90;;;;;;4984457;28;20523;-68
2022/03/24 02:33:45;;;;;;;41.00;30.83;;;6.30;99.90;;;;;;4977281;28;20477;-67
2022/03/24 02:36:38;;;;;;;41.93;31.13;;;6.30;99.90;;;;;;4974508;28;20519;-67
2022/03/24 02:39:32;;;;;;;40.30;28.83;;;6.20;99.90;;;;;;4977218;28;20509;-67
2022/03/24 02:42:22;;;;;;;39.50;29.90;;;6.20;99.90;;;;;;4976002;28;20509;-68
2022/03/24 02:45:11;;;;;;;39.67;30.33;;;6.10;99.90;;;;;;4974304;28;20489;-67
2022/03/24 02:47:59;;;;;;;44.93;31.97;;;6.10;99.90;;;;;;4973351;28;20602;-68
2022/03/24 02:50:47;;;;;;;41.00;30.53;;;6.00;99.90;;;;;;4973014;28;20461;-67
2022/03/24 02:53:42;;;;;;;42.83;31.10;;;6.00;99.90;;;;;;4974815;28;20473;-68
2022/03/24 02:56:32;;;;;;;40.50;30.53;;;6.00;99.90;;;;;;4976568;28;20458;-68
2022/03/24 02:59:25;;;;;;;43.60;30.63;;;5.90;99.90;;;;;;4984355;28;20481;-67
2022/03/24 03:02:15;;;;;;;42.77;29.40;;;5.90;99.90;;;;;;4989274;28;20434;-67
2022/03/24 03:05:03;;;;;;;43.23;30.80;;;5.90;99.90;;;;;;4978175;28;20482;-68
2022/03/24 03:07:53;;;;;;;42.53;31.60;;;5.80;99.90;;;;;;4976086;28;20887;-67
2022/03/24 03:10:51;;;;;;;46.10;33.10;;;5.80;99.90;;;;;;4974444;28;20476;-68
2022/03/24 03:13:40;;;;;;;42.00;30.37;;;5.70;99.90;;;;;;4968899;28;21022;-68
2022/03/24 03:16:33;;;;;;;40.27;29.10;;;5.70;99.90;;;;;;4974815;28;21129;-68
2022/03/24 03:19:28;;;;;;;44.23;31.83;;;5.60;99.90;;;;;;4971942;28;20504;-67
2022/03/24 03:22:16;;;;;;;43.13;31.07;;;5.60;99.90;;;;;;4978058;28;22046;-67
2022/03/24 03:25:10;;;;;;;43.33;31.50;;;5.50;99.90;;;;;;4977096;28;20550;-68
2022/03/24 03:28:04;;;;;;;41.83;31.30;;;5.40;99.90;;;;;;4975300;28;20560;-68
2022/03/24 03:30:56;;;;;;;41.43;29.43;;;5.40;99.90;;;;;;4991379;28;20465;-68
2022/03/24 03:33:45;;;;;;;46.07;31.63;;;5.30;99.90;;;;;;4987520;28;21595;-68
2022/03/24 03:36:35;;;;;;;42.93;30.83;;;5.30;99.90;;;;;;4973088;28;20548;-68
2022/03/24 03:39:23;;;;;;;43.10;29.87;;;5.30;99.90;;;;;;4977973;28;20680;-68
2022/03/24 03:42:11;;;;;;;40.93;31.47;;;5.20;99.90;;;;;;4973872;28;20486;-67
2022/03/24 03:45:03;;;;;;;41.23;30.77;;;5.20;99.90;;;;;;4975405;28;20491;-68
2022/03/24 03:47:54;;;;;;;43.10;30.40;;;5.20;99.90;;;;;;4976714;28;20552;-68
2022/03/24 03:50:43;;;;;;;42.63;30.20;;;5.10;99.90;;;;;;4972809;28;20482;-68
2022/03/24 03:53:34;;;;;;;42.60;31.27;;;5.10;99.90;;;;;;4971455;28;20620;-67
2022/03/24 03:56:26;;;;;;;45.10;32.30;;;5.00;99.90;;;;;;4974409;28;20518;-67
2022/03/24 03:59:16;;;;;;;44.67;31.20;;;5.00;99.90;;;;;;4973788;28;20543;-67
2022/03/24 04:02:04;;;;;;;43.13;30.90;;;5.00;99.90;;;;;;4976228;28;20966;-67
2022/03/24 04:04:56;;;;;;;43.93;30.20;;;5.00;99.90;;;;;;4985785;28;20477;-68
2022/03/24 04:07:47;;;;;;;43.87;31.37;;;4.90;99.90;;;;;;4985694;28;20512;-69
2022/03/24 04:10:37;;;;;;;44.00;31.60;;;4.90;99.90;;;;;;4978662;28;20564;-68
2022/03/24 04:13:27;;;;;;;43.93;30.27;;;4.90;99.90;;;;;;4972654;28;20621;-67
2022/03/24 04:16:15;;;;;;;44.57;29.60;;;4.80;99.90;;;;;;4975440;28;20548;-69
2022/03/24 04:19:07;;;;;;;42.47;30.93;;;4.80;99.90;;;;;;4976395;28;20616;-69
2022/03/24 04:21:58;;;;;;;42.67;31.57;;;4.80;99.90;;;;;;4973684;28;20457;-68
2022/03/24 04:24:48;;;;;;;46.67;30.97;;;4.80;99.90;;;;;;4975781;28;20477;-68
2022/03/24 04:27:36;;;;;;;44.93;31.60;;;4.80;99.90;;;;;;4974940;28;20453;-69
2022/03/24 04:30:26;;;;;;;45.73;31.73;;;4.80;99.90;;;;;;4974184;28;21767;-68
2022/03/24 04:33:15;;;;;;;41.50;31.90;;;4.70;99.90;;;;;;4975684;28;20493;-68
2022/03/24 04:36:08;;;;;;;44.23;31.00;;;4.70;99.90;;;;;;4972315;28;20969;-68
2022/03/24 04:39:01;;;;;;;47.07;32.00;;;4.70;99.90;;;;;;4989919;28;20497;-68
2022/03/24 04:41:49;;;;;;;42.17;30.60;;;4.70;99.90;;;;;;4986903;28;21328;-68
2022/03/24 04:44:38;;;;;;;49.13;32.20;;;4.70;99.90;;;;;;4973656;28;20468;-68
2022/03/24 04:47:28;;;;;;;43.33;30.23;;;4.60;99.90;;;;;;4979340;28;20450;-68
2022/03/24 04:50:17;;;;;;;42.53;31.57;;;4.60;99.90;;;;;;4977543;28;20555;-68
2022/03/24 04:53:15;;;;;;;42.07;29.90;;;4.60;99.90;;;;;;4977376;28;20492;-69
2022/03/24 04:56:07;;;;;;;45.73;32.07;;;4.50;99.90;;;;;;4979578;28;20643;-69
2022/03/24 04:59:03;;;;;;;43.97;31.50;;;4.50;99.90;;;;;;4976977;28;20482;-68
2022/03/24 05:01:59;;;;;;;41.63;29.97;;;4.50;99.90;;;;;;4978242;28;21007;-69
2022/03/24 05:04:52;;;;;;;47.37;32.33;;;4.40;99.90;;;;;;4977852;28;20628;-68
2022/03/24 05:07:42;;;;;;;45.10;31.90;;;4.40;99.90;;;;;;4980296;28;20985;-69
2022/03/24 05:10:30;;;;;;;41.13;29.53;;;4.40;99.90;;;;;;4985929;28;20520;-69
2022/03/24 05:13:23;;;;;;;45.17;32.07;;;4.40;99.90;;;;;;4977223;28;20501;-68
2022/03/24 05:16:13;;;;;;;45.13;30.03;;;4.40;99.90;;;;;;4980170;28;20536;-68
2022/03/24 05:19:03;;;;;;;49.30;33.27;;;4.40;99.90;;;;;;4980321;28;20976;-68
2022/03/24 05:21:51;;;;;;;40.73;31.13;;;4.30;99.90;;;;;;4980177;28;20599;-68
2022/03/24 05:24:50;;;;;;;44.43;30.47;;;4.30;99.90;;;;;;4977945;28;21160;-69
2022/03/24 05:27:40;;;;;;;46.07;31.33;;;4.30;99.90;;;;;;4979852;28;20480;-68
2022/03/24 05:30:34;;;;;;;45.47;30.37;;;4.30;99.90;;;;;;4979687;28;20458;-68
2022/03/24 05:33:30;;;;;;;46.03;32.40;;;4.20;99.90;;;;;;4977795;28;21013;-68
2022/03/24 05:36:23;;;;;;;43.93;31.80;;;4.20;99.90;;;;;;4975251;28;20460;-68
2022/03/24 05:39:25;;;;;;;46.10;30.77;;;4.20;99.90;;;;;;4974355;28;21227;-68
2022/03/24 05:42:20;;;;;;;51.90;33.67;;;4.20;99.90;;;;;;4974889;28;20453;-68
2022/03/24 05:45:09;;;;;;;47.00;30.87;;;4.20;99.90;;;;;;4954886;28;20490;-68
2022/03/24 05:47:59;;;;;;;48.40;32.10;;;4.20;99.90;;;;;;4957683;28;20482;-68
2022/03/24 05:50:57;;;;;;;43.13;30.67;;;4.20;99.90;;;;;;4954512;28;20533;-68
2022/03/24 05:53:54;;;;;;;44.37;31.33;;;4.20;99.90;;;;;;4954327;28;20849;-68
2022/03/24 05:56:44;;;;;;;46.93;32.50;;;4.20;99.90;;;;;;4949603;28;20467;-69
2022/03/24 05:59:34;;;;;;;47.53;31.30;;;4.20;99.90;;;;;;4955786;28;21073;-68
2022/03/24 06:02:25;;;;;;;49.03;32.13;;;4.20;99.90;;;;;;4954781;28;20461;-68
2022/03/24 06:05:20;;;;;;;40.70;30.80;;;4.20;99.90;;;;;;4952964;28;20637;-68
2022/03/24 06:08:11;;;;;;;48.20;32.20;;;4.30;99.90;;;;;;4956619;28;20497;-68
2022/03/24 06:11:03;;;;;;;47.77;33.90;;;4.30;99.90;;;;;;4959031;28;20645;-67
2022/03/24 06:13:51;;;;;;;48.30;32.87;;;4.40;99.90;;;;;;4953719;28;20637;-67
2022/03/24 06:16:43;;;;;;;52.80;31.90;;;4.40;99.90;;;;;;4947090;28;20594;-67
2022/03/24 06:19:31;;;;;;;49.17;32.60;;;4.50;99.90;;;;;;4957222;28;20978;-68
2022/03/24 06:22:23;;;;;;;49.60;32.00;;;4.70;99.90;;;;;;4954353;28;20459;-68
2022/03/24 06:25:11;;;;;;;51.87;34.67;;;4.80;99.90;;;;;;4969932;28;20508;-67
2022/03/24 06:28:00;;;;;;;49.60;34.33;;;4.90;99.90;;;;;;4978932;28;20481;-67
2022/03/24 06:30:53;;;;;;;48.90;34.63;;;5.00;99.90;;;;;;4974646;28;20457;-68
2022/03/24 06:33:41;;;;;;;49.73;34.83;;;5.20;99.90;;;;;;4972526;28;20615;-68
2022/03/24 06:36:29;;;;;;;53.10;35.63;;;5.30;99.90;;;;;;4979948;28;20633;-68
2022/03/24 06:39:22;;;;;;;52.93;35.00;;;5.40;99.90;;;;;;4976345;28;20547;-68
2022/03/24 06:42:13;;;;;;;49.20;36.60;;;5.70;99.90;;;;;;4975444;28;21261;-69
2022/03/24 06:45:04;;;;;;;52.80;36.77;;;6.20;99.90;;;;;;4971702;28;20485;-69
2022/03/24 06:47:52;;;;;;;50.27;35.13;;;6.70;99.90;;;;;;4971255;28;21043;-67
2022/03/24 06:50:46;;;;;;;46.37;33.63;;;6.80;99.90;;;;;;4980601;28;20459;-68
2022/03/24 06:53:34;;;;;;;51.60;37.23;;;6.70;99.90;;;;;;4975799;28;20543;-67
2022/03/24 06:56:26;;;;;;;47.13;35.07;;;6.60;99.90;;;;;;4969493;28;21027;-68
2022/03/24 06:59:17;;;;;;;50.67;36.67;;;6.50;99.90;;;;;;4974393;28;20473;-67
2022/03/24 07:02:06;;;;;;;47.63;35.27;;;6.50;99.90;;;;;;4979260;28;20460;-67
2022/03/24 07:04:55;;;;;;;47.67;33.53;;;6.50;99.90;;;;;;4954950;28;20505;-67
2022/03/24 07:07:45;;;;;;;48.57;34.23;;;6.50;99.90;;;;;;4960296;28;21220;-67
2022/03/24 07:10:35;;;;;;;44.33;35.40;;;6.50;99.90;;;;;;4960730;28;20447;-70
2022/03/24 07:13:27;;;;;;;47.03;35.37;;;6.50;99.90;;;;;;4959117;28;20972;-67
2022/03/24 07:16:17;;;;;;;50.37;35.20;;;6.60;99.90;;;;;;4961096;28;20457;-67
2022/03/24 07:19:09;;;;;;;47.27;35.77;;;6.70;99.90;;;;;;4959449;28;21040;-67
2022/03/24 07:21:59;;;;;;;50.13;37.17;;;6.70;99.90;;;;;;4961704;28;20546;-68
2022/03/24 07:24:50;;;;;;;50.97;35.47;;;6.80;99.90;;;;;;4961393;28;21145;-67
2022/03/24 07:27:45;;;;;;;46.77;35.20;;;6.90;99.90;;;;;;4960508;28;20928;-68
2022/03/24 07:30:35;;;;;;;46.60;34.60;;;7.00;99.90;;;;;;4960900;28;20596;-69
2022/03/24 07:33:25;;;;;;;49.05;35.50;;;7.00;99.90;;;;;;4958050;28;20585;-67
2022/03/24 07:36:22;;;;;;;45.77;34.00;;;7.10;99.90;;;;;;4958673;28;21012;-67
2022/03/24 07:39:11;;;;;;;46.40;34.00;;;7.20;99.90;;;;;;4959723;28;20609;-67
2022/03/24 07:42:01;;;;;;;48.33;34.50;;;7.30;99.90;;;;;;4959838;28;20549;-67
2022/03/24 07:44:51;;;;;;;43.63;32.20;;;7.40;99.90;;;;;;4959491;28;20467;-67
2022/03/24 07:48:09;;;;;;;47.77;33.93;;;7.40;99.90;;;;;;4959863;28;20542;-67
2022/03/24 07:51:04;;;;;;;47.13;34.27;;;7.50;99.90;;;;;;4958809;28;20616;-67
2022/03/24 07:54:00;;;;;;;47.70;33.90;;;7.60;99.90;;;;;;4958614;28;20478;-68
2022/03/24 07:56:49;;;;;;;48.43;34.10;;;7.70;99.90;;;;;;4958104;28;20888;-68
2022/03/24 07:59:38;;;;;;;48.20;34.70;;;7.80;99.90;;;;;;4958631;28;20631;-68
2022/03/24 08:02:28;;;;;;;41.93;32.90;;;7.90;99.90;;;;;;4960299;28;20610;-67
2022/03/24 08:05:36;;;;;;;46.30;34.63;;;8.00;99.90;;;;;;4977896;28;20981;-67
2022/03/24 08:08:26;;;;;;;43.00;32.93;;;8.10;99.90;;;;;;4978818;28;20552;-67
2022/03/24 08:11:18;;;;;;;47.43;33.20;;;8.20;99.90;;;;;;4978962;28;20465;-67
2022/03/24 08:14:06;;;;;;;46.67;32.70;;;8.30;99.90;;;;;;4963816;28;20509;-68
2022/03/24 08:16:57;;;;;;;47.20;33.87;;;8.40;99.90;;;;;;4964589;28;20471;-66
2022/03/24 08:19:52;;;;;;;44.10;33.30;;;8.50;99.90;;;;;;4980709;28;20487;-67
2022/03/24 08:22:41;;;;;;;44.10;33.50;;;8.60;99.90;;;;;;4980962;28;20529;-67
2022/03/24 08:25:31;;;;;;;43.63;32.30;;;8.70;99.90;;;;;;4977315;28;20455;-67
2022/03/24 08:28:24;;;;;;;44.73;33.00;;;8.80;99.90;;;;;;4957544;28;20641;-67
2022/03/24 08:31:17;;;;;;;44.13;31.80;;;9.00;99.90;;;;;;4960322;28;20478;-67
2022/03/24 08:34:11;;;;;;;41.60;32.10;;;9.10;99.90;;;;;;4958598;28;20491;-67
2022/03/24 08:37:02;;;;;;;44.60;32.00;;;9.30;99.90;;;;;;4959977;28;21009;-67
2022/03/24 08:39:53;;;;;;;47.27;31.73;;;9.40;99.90;;;;;;4958339;28;20557;-67
2022/03/24 08:42:43;;;;;;;42.50;32.97;;;9.50;99.90;;;;;;4957334;28;20455;-68
2022/03/24 08:45:35;;;;;;;44.10;33.10;;;9.70;99.90;;;;;;4960562;28;20528;-68
2022/03/24 08:48:23;;;;;;;39.47;29.33;;;9.80;99.90;;;;;;4959863;28;20475;-67
2022/03/24 08:51:13;;;;;;;39.33;29.93;;;10.00;99.90;;;;;;4960956;28;20533;-67
2022/03/24 08:54:09;;;;;;;41.10;29.80;;;10.10;99.90;;;;;;4958215;28;20475;-67
2022/03/24 08:57:01;;;;;;;37.87;30.07;;;10.10;99.90;;;;;;4960489;28;20458;-67
2022/03/24 08:59:49;;;;;;;39.03;28.70;;;10.20;99.90;;;;;;4959338;28;21187;-68
2022/03/24 09:02:43;;;;;;;37.43;28.80;;;10.30;99.90;;;;;;4960633;28;20844;-67
2022/03/24 09:05:38;;;;;;;36.90;27.70;;;10.40;99.90;;;;;;4960656;28;20462;-67
2022/03/24 09:08:28;;;;;;;40.53;28.70;;;10.40;99.90;;;;;;4960174;28;20849;-67
2022/03/24 09:11:18;;;;;;;34.47;26.63;;;10.60;99.90;;;;;;4959628;28;20459;-67
2022/03/24 09:14:07;;;;;;;34.43;27.20;;;10.70;99.90;;;;;;4961184;28;20581;-67
2022/03/24 09:16:59;;;;;;;36.10;27.90;;;10.80;99.90;;;;;;4958122;28;20478;-68
2022/03/24 09:19:51;;;;;;;38.70;28.70;;;10.90;99.90;;;;;;4957527;28;20567;-67
2022/03/24 09:22:45;;;;;;;35.73;27.70;;;11.00;99.90;;;;;;4958927;28;20474;-68
2022/03/24 09:25:34;;;;;;;34.23;27.67;;;11.10;99.90;;;;;;4959958;28;20459;-67
2022/03/24 09:28:24;;;;;;;39.73;28.00;;;11.30;99.90;;;;;;4958595;28;20567;-68
2022/03/24 09:31:16;;;;;;;40.03;27.87;;;11.40;99.90;;;;;;4962460;28;20553;-68
2022/03/24 09:34:08;;;;;;;34.80;27.87;;;11.50;99.90;;;;;;4964156;28;20850;-68
2022/03/24 09:36:56;;;;;;;35.80;28.17;;;11.60;99.90;;;;;;4961882;28;20528;-68
2022/03/24 09:39:45;;;;;;;37.13;28.70;;;11.80;99.90;;;;;;4964805;28;20518;-68
2022/03/24 09:42:34;;;;;;;36.70;26.97;;;11.90;99.90;;;;;;4961797;28;20451;-67
2022/03/24 09:45:24;;;;;;;36.47;27.93;;;11.90;99.90;;;;;;4965351;28;20952;-68
2022/03/24 09:48:17;;;;;;;35.10;26.80;;;12.10;99.90;;;;;;4963179;28;20477;-68
2022/03/24 09:51:09;;;;;;;34.40;26.77;;;12.20;99.90;;;;;;4963058;28;20454;-69
2022/03/24 09:53:57;;;;;;;35.40;27.20;;;12.20;99.90;;;;;;4961528;28;20485;-69
2022/03/24 09:56:45;;;;;;;36.70;27.13;;;12.40;99.90;;;;;;4960473;28;20560;-68
2022/03/24 09:59:35;;;;;;;34.77;27.27;;;12.50;99.90;;;;;;4964946;28;20849;-68
2022/03/24 10:02:23;;;;;;;32.50;26.97;;;12.60;99.90;;;;;;4961761;28;21028;-68
2022/03/24 10:05:20;;;;;;;33.73;27.93;;;12.60;99.90;;;;;;4970569;28;20517;-68
2022/03/24 10:08:10;;;;;;;36.23;27.97;;;12.70;99.90;;;;;;4970526;28;20474;-68
2022/03/24 10:11:05;;;;;;;36.30;26.50;;;12.70;99.90;;;;;;4969836;28;20457;-69
2022/03/24 10:14:03;;;;;;;36.37;28.00;;;12.70;99.90;;;;;;4966009;28;20502;-68
2022/03/24 10:16:53;;;;;;;36.10;27.00;;;12.80;99.90;;;;;;4962253;28;20870;-68
2022/03/24 10:19:56;;;;;;;34.60;26.93;;;12.90;99.90;;;;;;4962726;28;21016;-69
2022/03/24 10:22:56;;;;;;;35.33;27.57;;;13.00;99.90;;;;;;4960310;28;21045;-68
2022/03/24 10:25:48;;;;;;;33.80;27.57;;;13.10;99.90;;;;;;4962487;28;20446;-68
2022/03/24 10:28:41;;;;;;;36.80;26.67;;;13.30;99.90;;;;;;4963014;28;20561;-68
2022/03/24 10:31:36;;;;;;;33.10;26.27;;;13.30;99.90;;;;;;4958963;28;20467;-68
2022/03/24 10:34:36;;;;;;;34.97;26.17;;;13.50;99.90;;;;;;4961335;28;21062;-67
2022/03/24 10:37:34;;;;;;;33.23;26.87;;;13.60;99.90;;;;;;4960498;28;20523;-67
2022/03/24 10:40:27;;;;;;;33.70;26.90;;;13.70;99.90;;;;;;4961430;28;20550;-68
2022/03/24 10:43:23;;;;;;;32.50;25.70;;;13.70;99.90;;;;;;4960088;28;20755;-68
2022/03/24 10:46:15;;;;;;;32.03;25.60;;;13.80;99.90;;;;;;4961556;28;20484;-67
2022/03/24 10:49:20;;;;;;;35.77;26.60;;;14.00;99.90;;;;;;4960935;28;20515;-68
2022/03/24 10:52:21;;;;;;;32.70;27.37;;;14.10;99.90;;;;;;4961595;28;20549;-67
2022/03/24 10:55:09;;;;;;;33.17;27.30;;;14.30;99.90;;;;;;4981919;28;20535;-68
2022/03/24 10:58:03;;;;;;;39.77;27.30;;;14.30;99.90;;;;;;4979355;28;20935;-67
2022/03/24 11:01:03;;;;;;;42.30;25.37;;;14.40;99.90;;;;;;4980533;28;21382;-68
2022/03/24 11:03:55;;;;;;;34.03;27.13;;;14.60;99.90;;;;;;4969975;28;20989;-69
2022/03/24 11:06:49;;;;;;;34.57;26.20;;;14.70;99.90;;;;;;4962324;28;20494;-69
2022/03/24 11:09:37;;;;;;;34.20;27.87;;;14.90;99.90;;;;;;4956993;28;20493;-67
2022/03/24 11:12:32;;;;;;;35.93;26.00;;;15.00;99.90;;;;;;4960350;28;20914;-68
2022/03/24 11:15:22;;;;;;;34.10;25.90;;;15.10;99.90;;;;;;4980909;28;20474;-68
2022/03/24 11:18:15;;;;;;;35.50;26.73;;;15.20;99.90;;;;;;4981180;28;20486;-68
2022/03/24 11:21:09;;;;;;;33.40;25.77;;;15.30;99.90;;;;;;4981096;28;20473;-70
2022/03/24 11:23:59;;;;;;;33.77;26.43;;;15.50;99.90;;;;;;4967333;28;20608;-68
2022/03/24 11:26:48;;;;;;;30.73;25.20;;;15.60;99.90;;;;;;4958297;28;20483;-68
2022/03/24 11:29:36;;;;;;;27.57;24.50;;;15.70;99.90;;;;;;4959314;28;20524;-69
2022/03/24 11:32:36;;;;;;;30.47;25.77;;;15.90;99.90;;;;;;4957204;28;20490;-68
2022/03/24 11:35:27;;;;;;;34.23;27.17;;;15.90;99.90;;;;;;4978434;28;20486;-69
2022/03/24 11:38:21;;;;;;;31.97;26.80;;;15.90;99.90;;;;;;4966935;28;20486;-68
2022/03/24 11:41:15;;;;;;;33.73;26.23;;;16.00;99.90;;;;;;4974898;28;20478;-70
2022/03/24 11:44:09;;;;;;;34.23;26.30;;;16.00;99.90;;;;;;4970563;28;20482;-70
2022/03/24 11:47:00;;;;;;;36.10;26.40;;;16.10;99.90;;;;;;4971193;28;20462;-69
2022/03/24 11:50:07;;;;;;;30.80;26.43;;;16.30;99.90;;;;;;4969786;28;20809;-68
2022/03/24 11:53:09;;;;;;;32.60;27.00;;;16.60;99.90;;;;;;4971315;28;20465;-69
2022/03/24 11:56:15;;;;;;;39.57;27.43;;;16.70;99.90;;;;;;4972515;28;20501;-69
2022/03/24 11:59:20;;;;;;;34.27;26.93;;;16.90;99.90;;;;;;4975551;28;20504;-69
2022/03/24 12:02:16;;;;;;;33.60;29.17;;;17.10;99.90;;;;;;4973134;28;20458;-69
2022/03/24 12:05:07;;;;;;;36.53;29.73;;;17.10;99.90;;;;;;4970350;28;20485;-69
2022/03/24 12:08:05;;;;;;;34.60;29.70;;;17.20;99.90;;;;;;4972532;28;20802;-67
2022/03/24 12:15:12;;;;;;;32.90;27.03;;;17.40;99.90;;;;;;4969408;28;20617;-69
2022/03/24 12:18:05;;;;;;;34.43;28.60;;;17.70;99.90;;;;;;4972702;28;20497;-68
2022/03/24 12:21:04;;;;;;;34.33;29.07;;;17.90;99.90;;;;;;4965043;28;20469;-68
2022/03/24 12:24:09;;;;;;;34.17;27.33;;;18.10;99.90;;;;;;4968995;28;20476;-69
2022/03/24 12:26:59;;;;;;;33.97;28.50;;;18.20;99.90;;;;;;4963594;28;21123;-67
2022/03/24 12:30:12;;;;;;;32.67;28.10;;;18.30;99.90;;;;;;4960753;28;20530;-68
2022/03/24 12:33:06;;;;;;;35.27;28.17;;;18.50;99.90;;;;;;4970591;28;20841;-68
2022/03/24 12:35:56;;;;;;;34.20;28.23;;;18.70;99.90;;;;;;4977220;28;20872;-68
2022/03/24 12:38:49;;;;;;;36.87;28.27;;;18.90;99.90;;;;;;4974121;28;20631;-68
2022/03/24 12:41:37;;;;;;;30.23;26.97;;;19.10;99.90;;;;;;4966874;28;20583;-68
2022/03/24 12:44:49;;;;;;;29.67;26.50;;;19.50;99.90;;;;;;4967329;28;20526;-68
2022/03/24 12:47:44;;;;;;;29.13;25.93;;;19.70;99.90;;;;;;4973466;28;20608;-68
2022/03/24 12:50:48;;;;;;;32.00;26.83;;;20.10;99.90;;;;;;4973291;28;20496;-69
2022/03/24 12:53:53;;;;;;;31.67;27.47;;;20.60;99.90;;;;;;4970920;28;20537;-69
2022/03/24 12:56:43;;;;;;;32.00;27.23;;;20.80;99.30;;;;;;4975014;28;20572;-69
2022/03/24 12:59:36;;;;;;;29.77;26.60;;;21.40;99.70;;;;;;4974896;28;20616;-68
2022/03/24 13:02:25;;;;;;;32.23;28.73;;;22.10;98.20;;;;;;4972926;28;20453;-69
2022/03/24 13:05:22;;;;;;;29.77;26.60;;;22.70;95.30;;;;;;4972835;28;20846;-67
2022/03/24 13:08:13;;;;;;;28.47;25.60;;;23.60;95.60;;;;;;4975123;28;20527;-67
2022/03/24 13:11:04;;;;;;;29.00;26.00;;;24.90;93.40;;;;;;4976954;28;20458;-67
2022/03/24 13:13:55;;;;;;;27.10;24.30;;;26.30;86.10;;;;;;4972958;28;20476;-67
2022/03/24 13:16:57;;;;;;;27.70;25.00;;;27.30;80.20;;;;;;4973817;28;20489;-67
2022/03/24 13:19:50;;;;;;;26.17;23.53;;;28.10;71.50;;;;;;4973099;28;20486;-67
2022/03/24 13:22:40;;;;;;;25.77;23.17;;;28.00;70.70;;;;;;4975456;28;20541;-67
2022/03/24 13:25:29;;;;;;;27.53;24.97;;;28.10;69.00;;;;;;4975893;28;20545;-67
2022/03/24 13:28:19;;;;;;;28.30;25.40;;;28.30;64.30;;;;;;4976913;28;20476;-67
2022/03/24 13:31:08;;;;;;;25.10;22.50;;;28.00;64.50;;;;;;4977568;28;20497;-68
2022/03/24 13:33:56;;;;;;;27.93;25.00;;;28.00;65.60;;;;;;4975352;28;20485;-68
2022/03/24 13:36:44;;;;;;;27.27;24.50;;;28.20;64.20;;;;;;4971764;28;20584;-68
2022/03/24 14:06:31;;;;;;;22.90;20.30;;;25.20;65.30;;;;;;5627321;23;20605;-89
2022/03/24 14:09:22;;;;;;;24.43;21.57;;;25.00;64.30;;;;;;5011410;28;20465;-90
2022/03/24 14:12:15;;;;;;;23.83;21.53;;;24.60;64.80;;;;;;4997658;28;20548;-88
2022/03/24 14:15:06;;;;;;;21.70;19.37;;;24.20;64.40;;;;;;4995709;28;20473;-91
2022/03/24 14:18:15;;;;;;;20.60;18.70;;;23.70;65.80;;;;;;4978964;28;20545;-90
2022/03/24 14:21:05;;;;;;;25.93;23.20;;;23.50;66.30;;;;;;4977341;28;20457;-90
2022/03/24 14:23:55;;;;;;;24.90;22.40;;;23.00;65.90;;;;;;4972098;28;20641;-90
2022/03/24 14:26:57;;;;;;;26.93;24.17;;;22.70;67.80;;;;;;4958138;28;20988;-91
2022/03/24 14:30:01;;;;;;;23.87;21.20;;;22.50;67.80;;;;;;4955774;28;20464;-92
2022/03/24 14:32:52;;;;;;;28.33;23.33;;;22.20;68.90;;;;;;4962084;28;20612;-92
2022/03/24 14:35:41;;;;;;;26.57;23.80;;;21.90;67.80;;;;;;4961563;28;20470;-90
2022/03/24 14:38:30;;;;;;;25.90;23.20;;;21.50;67.50;;;;;;4961737;28;20807;-91
2022/03/24 14:41:20;;;;;;;25.80;22.37;;;21.30;69.30;;;;;;4968310;28;20450;-93
2022/03/24 14:44:10;;;;;;;28.13;24.60;;;21.20;71.10;;;;;;4977929;28;20505;-91
2022/03/24 14:47:00;;;;;;;26.40;22.97;;;21.10;70.10;;;;;;4980325;28;20481;-92
2022/03/24 14:49:51;;;;;;;29.60;22.60;;;21.00;70.30;;;;;;4984936;28;20511;-91
2022/03/24 14:52:40;;;;;;;27.03;24.17;;;20.90;70.10;;;;;;4974160;28;20450;-90
2022/03/24 14:55:28;;;;;;;26.03;23.20;;;20.90;72.00;;;;;;4976496;28;20450;-91
2022/03/24 14:58:18;;;;;;;25.17;22.67;;;20.90;71.30;;;;;;4984207;23;20506;-90
2022/03/24 15:01:07;;;;;;;27.40;24.50;;;20.90;70.60;;;;;;4961388;28;20522;-91
2022/03/24 15:03:56;;;;;;;24.97;22.43;;;21.00;71.50;;;;;;4966806;28;20480;-94
2022/03/24 15:06:45;;;;;;;27.23;24.23;;;20.80;70.10;;;;;;4965810;28;20459;-95
2022/03/24 15:09:36;;;;;;;24.87;22.27;;;20.90;72.20;;;;;;4966354;28;20447;-94
2022/03/24 15:12:25;;;;;;;25.57;23.00;;;20.90;71.40;;;;;;4969857;28;20443;-94